Time;durP1;ratioP1;P1;durP2;ratioP2;P2;SDS_P1;SDS_P2;PMS_P1;PMS_P2;Temp;Humidity;BMP_temperature;BMP_pressure;BME280_temperature;BME280_humidity;BME280_pressure;Samples;Min_cycle;Max_cycle;Signal;HPM_P1;HPM_P2
2021/04/03 00:00:53;;;;;;;;;;;;;;;4.07;82.96;101482.44;5069946;28;19984;-76
2021/04/03 00:03:19;;;;;;;;;;;;;;;3.95;83.27;101479.56;5068212;28;19921;-77
2021/04/03 00:05:44;;;;;;;;;;;;;;;4.03;82.97;101486.69;5073721;28;19931;-76
2021/04/03 00:08:10;;;;;;;;;;;;;;;4.02;82.84;101482.25;5074369;28;20269;-77
2021/04/03 00:10:38;;;;;;;;;;;;;;;4.00;82.96;101478.88;5071151;28;19968;-76
2021/04/03 00:13:03;;;;;;;;;;;;;;;3.99;83.00;101477.22;5073537;28;20168;-76
2021/04/03 00:15:29;;;;;;;;;;;;;;;4.06;82.50;101480.72;5059329;28;19920;-77
2021/04/03 00:17:54;;;;;;;;;;;;;;;4.08;82.35;101483.25;5070154;28;19916;-76
2021/04/03 00:20:20;;;;;;;;;;;;;;;4.11;82.20;101480.06;5072638;28;19923;-76
2021/04/03 00:22:46;;;;;;;;;;;;;;;3.98;82.61;101483.75;5076056;28;19923;-77
2021/04/03 00:25:11;;;;;;;;;;;;;;;3.90;83.02;101492.28;5050900;28;19917;-77
2021/04/03 00:27:36;;;;;;;;;;;;;;;3.79;83.65;101478.25;5069781;28;19995;-76
2021/04/03 00:30:14;;;;;;;;;;;;;;;3.88;83.27;101478.81;5053874;28;19924;-76
2021/04/03 00:32:41;;;;;;;;;;;;;;;3.75;83.81;101468.75;5070519;28;19916;-77
2021/04/03 00:35:07;;;;;;;;;;;;;;;3.79;83.72;101475.50;5073491;28;19916;-76
2021/04/03 00:37:32;;;;;;;;;;;;;;;3.78;83.71;101473.81;5073333;28;19981;-76
2021/04/03 00:39:57;;;;;;;;;;;;;;;3.77;83.72;101483.13;5073222;28;19916;-76
2021/04/03 00:42:23;;;;;;;;;;;;;;;3.85;83.39;101476.50;5056154;28;19995;-76
2021/04/03 00:44:48;;;;;;;;;;;;;;;3.83;83.42;101480.53;5056683;28;19956;-77
2021/04/03 00:47:14;;;;;;;;;;;;;;;3.87;83.25;101481.75;5063633;28;19920;-76
2021/04/03 00:49:41;;;;;;;;;;;;;;;3.79;83.50;101481.00;5066256;28;19917;-76
2021/04/03 00:52:07;;;;;;;;;;;;;;;3.79;83.48;101474.66;5069885;28;19967;-76
2021/04/03 00:54:33;;;;;;;;;;;;;;;3.74;83.76;101485.50;5064318;28;19924;-77
2021/04/03 00:56:58;;;;;;;;;;;;;;;3.79;83.38;101480.16;5052160;28;19938;-76
2021/04/03 00:59:23;;;;;;;;;;;;;;;3.73;83.54;101473.66;5074518;28;19990;-76
2021/04/03 01:01:49;;;;;;;;;;;;;;;3.83;83.29;101470.38;5064275;28;19996;-76
2021/04/03 01:04:14;;;;;;;;;;;;;;;3.62;83.98;101474.38;5052587;28;19938;-76
2021/04/03 01:06:39;;;;;;;;;;;;;;;3.66;84.09;101475.63;5051258;28;19916;-76
2021/04/03 01:09:05;;;;;;;;;;;;;;;3.60;84.20;101468.28;5071909;28;19917;-76
2021/04/03 01:11:30;;;;;;;;;;;;;;;3.63;83.90;101480.72;5072779;28;20368;-76
2021/04/03 01:13:58;;;;;;;;;;;;;;;3.54;84.14;101478.25;5056659;28;19923;-77
2021/04/03 01:16:24;;;;;;;;;;;;;;;3.45;84.94;101478.75;5072278;28;19920;-76
2021/04/03 01:19:07;;;;;;;;;;;;;;;3.50;84.79;101471.50;5073374;28;19973;-76
2021/04/03 01:21:51;;;;;;;;;;;;;;;3.55;84.30;101468.94;5073636;28;19924;-76
2021/04/03 01:24:21;;;;;;;;;;;;;;;3.44;84.89;101477.06;5072392;28;19920;-76
2021/04/03 01:27:05;;;;;;;;;;;;;;;3.57;84.17;101472.31;5075643;28;19920;-76
2021/04/03 01:29:50;;;;;;;;;;;;;;;3.44;84.49;101464.19;5076899;28;19962;-76
2021/04/03 01:32:16;;;;;;;;;;;;;;;3.42;84.68;101469.03;5067346;28;19912;-76
2021/04/03 01:34:41;;;;;;;;;;;;;;;3.35;84.85;101469.09;5076821;28;19948;-77
2021/04/03 01:37:07;;;;;;;;;;;;;;;3.38;84.46;101464.25;5072040;28;19919;-76
2021/04/03 01:39:33;;;;;;;;;;;;;;;3.39;84.44;101463.16;5070144;28;20008;-76
2021/04/03 01:42:00;;;;;;;;;;;;;;;3.36;84.41;101467.19;5037192;28;19963;-76
2021/04/03 01:44:27;;;;;;;;;;;;;;;3.34;84.42;101467.44;5059382;28;19920;-76
2021/04/03 01:46:52;;;;;;;;;;;;;;;3.33;84.81;101465.72;5064923;28;20007;-76
2021/04/03 01:49:21;;;;;;;;;;;;;;;3.23;84.91;101470.91;5080981;28;19954;-76
2021/04/03 01:51:47;;;;;;;;;;;;;;;3.27;84.83;101466.63;5078278;28;20327;-76
2021/04/03 01:54:12;;;;;;;;;;;;;;;3.30;84.75;101471.66;5079593;28;20007;-76
2021/04/03 01:56:38;;;;;;;;;;;;;;;3.29;84.59;101471.91;5080672;28;20368;-76
2021/04/03 01:59:05;;;;;;;;;;;;;;;3.28;84.33;101468.28;5098303;28;19930;-76
2021/04/03 02:01:30;;;;;;;;;;;;;;;3.31;84.02;101462.34;5061709;28;19932;-76
2021/04/03 02:03:55;;;;;;;;;;;;;;;3.16;84.85;101475.56;5078383;28;19916;-76
2021/04/03 02:06:21;;;;;;;;;;;;;;;3.26;84.48;101475.94;5076588;28;19920;-76
2021/04/03 02:08:48;;;;;;;;;;;;;;;3.28;83.92;101465.56;5063630;28;19923;-76
2021/04/03 02:11:13;;;;;;;;;;;;;;;3.40;83.56;101467.56;5052127;28;19927;-76
2021/04/03 02:13:39;;;;;;;;;;;;;;;3.46;82.90;101470.28;5078003;28;19916;-77
2021/04/03 02:16:05;;;;;;;;;;;;;;;3.42;83.07;101470.94;5061607;28;20041;-76
2021/04/03 02:18:30;;;;;;;;;;;;;;;3.41;83.15;101466.53;5049904;28;19923;-76
2021/04/03 02:20:57;;;;;;;;;;;;;;;3.33;83.19;101476.72;5045280;28;19923;-76
2021/04/03 02:23:23;;;;;;;;;;;;;;;3.23;83.83;101475.53;5083647;28;19920;-77
2021/04/03 02:25:48;;;;;;;;;;;;;;;3.26;83.36;101478.69;5079576;28;19922;-76
2021/04/03 02:28:13;;;;;;;;;;;;;;;3.17;84.26;101481.91;5077805;28;19920;-76
2021/04/03 02:30:39;;;;;;;;;;;;;;;3.10;84.18;101476.47;5061741;28;19916;-76
2021/04/03 02:33:04;;;;;;;;;;;;;;;3.03;84.93;101481.13;5075945;28;19920;-76
2021/04/03 02:35:29;;;;;;;;;;;;;;;3.05;84.72;101479.03;5060715;28;19916;-76
2021/04/03 02:37:57;;;;;;;;;;;;;;;3.09;84.38;101475.63;5078357;28;20334;-76
2021/04/03 02:40:23;;;;;;;;;;;;;;;3.00;84.89;101485.16;5059351;28;19934;-76
2021/04/03 02:42:51;;;;;;;;;;;;;;;2.99;84.98;101477.16;5093926;28;19916;-76
2021/04/03 02:45:17;;;;;;;;;;;;;;;3.03;84.72;101470.16;5073777;28;19920;-75
2021/04/03 02:47:44;;;;;;;;;;;;;;;2.88;85.35;101471.31;5060063;28;19957;-76
2021/04/03 02:50:16;;;;;;;;;;;;;;;2.87;85.64;101471.50;5073549;28;19923;-76
2021/04/03 02:52:41;;;;;;;;;;;;;;;2.89;85.35;101474.88;5075029;28;19961;-76
2021/04/03 02:55:07;;;;;;;;;;;;;;;2.93;85.19;101475.31;5075847;28;19948;-77
2021/04/03 02:57:32;;;;;;;;;;;;;;;2.91;84.96;101479.09;5073244;28;19948;-77
2021/04/03 02:59:57;;;;;;;;;;;;;;;2.94;84.63;101472.34;5061852;28;19923;-76
2021/04/03 03:02:23;;;;;;;;;;;;;;;2.91;84.93;101476.34;5077847;28;19935;-76
2021/04/03 03:04:48;;;;;;;;;;;;;;;2.94;84.90;101476.97;5073961;28;19965;-76
2021/04/03 03:07:13;;;;;;;;;;;;;;;2.97;84.65;101471.88;5074992;28;19920;-76
2021/04/03 03:09:40;;;;;;;;;;;;;;;2.94;84.45;101466.84;5076595;28;19962;-76
2021/04/03 03:12:07;;;;;;;;;;;;;;;2.84;84.97;101472.81;5073490;28;20462;-76
2021/04/03 03:14:33;;;;;;;;;;;;;;;2.86;84.87;101481.66;5072337;28;19917;-76
2021/04/03 03:16:58;;;;;;;;;;;;;;;2.83;85.02;101475.78;5076398;28;19912;-76
2021/04/03 03:19:23;;;;;;;;;;;;;;;2.69;85.62;101486.81;5055006;28;20009;-76
2021/04/03 03:21:49;;;;;;;;;;;;;;;2.72;85.40;101477.28;5072670;28;20069;-76
2021/04/03 03:24:14;;;;;;;;;;;;;;;2.80;85.21;101476.22;5056967;28;19928;-76
2021/04/03 03:26:40;;;;;;;;;;;;;;;2.80;85.06;101477.03;5054909;28;19916;-76
2021/04/03 03:29:05;;;;;;;;;;;;;;;2.78;84.76;101478.31;5055757;28;19917;-76
2021/04/03 03:31:31;;;;;;;;;;;;;;;2.80;84.73;101478.94;5059134;28;19916;-76
2021/04/03 03:33:56;;;;;;;;;;;;;;;2.81;84.63;101481.47;5071957;28;19917;-76
2021/04/03 03:36:22;;;;;;;;;;;;;;;2.81;84.60;101484.22;5075128;28;20292;-76
2021/04/03 03:38:47;;;;;;;;;;;;;;;2.82;84.34;101474.94;5054482;28;19924;-76
2021/04/03 03:41:13;;;;;;;;;;;;;;;2.87;84.18;101482.50;5072446;28;19917;-77
2021/04/03 03:43:38;;;;;;;;;;;;;;;2.79;84.42;101478.13;5073945;28;19995;-76
2021/04/03 03:46:05;;;;;;;;;;;;;;;2.81;84.38;101483.38;5048424;28;21410;-76
2021/04/03 03:48:31;;;;;;;;;;;;;;;2.79;84.25;101471.78;5073643;28;19923;-76
2021/04/03 03:50:56;;;;;;;;;;;;;;;2.81;84.16;101475.13;5073173;28;19957;-76
2021/04/03 03:53:21;;;;;;;;;;;;;;;2.80;84.47;101477.03;5054952;28;19944;-76
2021/04/03 03:55:47;;;;;;;;;;;;;;;2.83;84.16;101475.78;5054691;28;19913;-76
2021/04/03 03:58:12;;;;;;;;;;;;;;;2.85;83.95;101471.75;5057433;28;19917;-76
2021/04/03 04:00:37;;;;;;;;;;;;;;;2.79;84.17;101469.88;5073406;28;20007;-77
2021/04/03 04:03:03;;;;;;;;;;;;;;;2.77;84.17;101472.00;5075353;28;20006;-76
2021/04/03 04:05:28;;;;;;;;;;;;;;;2.99;83.01;101468.94;5070369;28;19923;-76
2021/04/03 04:07:53;;;;;;;;;;;;;;;2.86;83.40;101467.94;5054557;28;19917;-77
2021/04/03 04:10:19;;;;;;;;;;;;;;;2.87;83.46;101460.53;5053964;28;19917;-76
2021/04/03 04:12:44;;;;;;;;;;;;;;;2.84;83.60;101466.47;5074412;28;19966;-77
2021/04/03 04:15:09;;;;;;;;;;;;;;;2.87;83.55;101466.03;5062509;28;19913;-76
2021/04/03 04:17:35;;;;;;;;;;;;;;;2.83;83.93;101473.88;5069274;28;19917;-76
2021/04/03 04:20:00;;;;;;;;;;;;;;;2.88;83.58;101474.06;5072884;28;20008;-76
2021/04/03 04:22:26;;;;;;;;;;;;;;;2.79;84.26;101472.63;5074324;28;20292;-76
2021/04/03 04:24:51;;;;;;;;;;;;;;;2.88;83.64;101474.06;5070379;28;20403;-76
2021/04/03 04:27:16;;;;;;;;;;;;;;;2.88;83.57;101478.69;5073328;28;19916;-76
2021/04/03 04:29:42;;;;;;;;;;;;;;;2.81;83.97;101469.66;5075168;28;19912;-76
2021/04/03 04:32:07;;;;;;;;;;;;;;;2.85;83.72;101471.75;5073893;28;19948;-77
2021/04/03 04:34:32;;;;;;;;;;;;;;;2.82;84.17;101476.84;5072877;28;20372;-77
2021/04/03 04:36:58;;;;;;;;;;;;;;;2.79;84.39;101475.38;5075222;28;19935;-76
2021/04/03 04:39:24;;;;;;;;;;;;;;;2.73;85.21;101489.97;5089802;28;19927;-76
2021/04/03 04:41:50;;;;;;;;;;;;;;;2.70;85.55;101482.16;5074510;28;20045;-76
2021/04/03 04:44:15;;;;;;;;;;;;;;;2.79;85.11;101485.50;5075473;28;19921;-76
2021/04/03 04:46:40;;;;;;;;;;;;;;;2.80;85.39;101485.28;5075544;28;19920;-76
2021/04/03 04:49:06;;;;;;;;;;;;;;;2.81;85.67;101483.38;5076484;28;19961;-76
2021/04/03 04:51:31;;;;;;;;;;;;;;;2.77;85.75;101493.13;5078395;28;19922;-76
2021/04/03 04:53:56;;;;;;;;;;;;;;;2.79;85.95;101494.59;5075967;28;19935;-76
2021/04/03 04:56:22;;;;;;;;;;;;;;;2.82;86.05;101490.56;5094337;28;20386;-76
2021/04/03 04:58:47;;;;;;;;;;;;;;;2.74;86.28;101494.38;5096307;28;19917;-76
2021/04/03 05:01:12;;;;;;;;;;;;;;;2.79;86.03;101497.31;5074927;28;19920;-76
2021/04/03 05:03:37;;;;;;;;;;;;;;;2.79;86.13;101497.31;5062067;28;19916;-76
2021/04/03 05:06:03;;;;;;;;;;;;;;;2.75;86.34;101496.06;5081364;28;19928;-76
2021/04/03 05:08:28;;;;;;;;;;;;;;;2.77;86.27;101493.94;5078590;28;19919;-76
2021/04/03 05:10:53;;;;;;;;;;;;;;;2.79;86.24;101499.22;5079521;28;19974;-75
2021/04/03 05:13:19;;;;;;;;;;;;;;;2.75;86.60;101500.72;5051775;28;19912;-76
2021/04/03 05:15:44;;;;;;;;;;;;;;;2.75;86.83;101501.53;5077786;28;19915;-76
2021/04/03 05:18:10;;;;;;;;;;;;;;;2.78;86.48;101498.38;5062788;28;19916;-76
2021/04/03 05:20:35;;;;;;;;;;;;;;;2.72;86.84;101493.75;5082162;28;19912;-76
2021/04/03 05:23:00;;;;;;;;;;;;;;;2.82;86.61;101496.03;5078356;28;19912;-76
2021/04/03 05:25:25;;;;;;;;;;;;;;;2.88;86.24;101497.91;5099407;28;19920;-75
2021/04/03 05:27:51;;;;;;;;;;;;;;;2.85;86.11;101485.47;5069499;28;19912;-76
2021/04/03 05:30:16;;;;;;;;;;;;;;;2.87;86.32;101491.59;5077206;28;20389;-75
2021/04/03 05:32:42;;;;;;;;;;;;;;;2.77;86.80;101499.44;5097563;28;19919;-76
2021/04/03 05:35:07;;;;;;;;;;;;;;;2.93;86.17;101498.09;5061785;28;19923;-76
2021/04/03 05:37:33;;;;;;;;;;;;;;;2.94;86.21;101504.44;5062523;28;19962;-76
2021/04/03 05:39:58;;;;;;;;;;;;;;;2.95;86.02;101506.94;5047485;28;19916;-76
2021/04/03 05:42:23;;;;;;;;;;;;;;;3.05;85.64;101500.97;5080164;28;20265;-76
2021/04/03 05:44:49;;;;;;;;;;;;;;;3.01;85.85;101511.56;5076807;28;19927;-76
2021/04/03 05:47:14;;;;;;;;;;;;;;;3.04;85.71;101505.63;5086881;28;19920;-76
2021/04/03 05:49:40;;;;;;;;;;;;;;;3.02;85.63;101506.91;5073472;28;19954;-75
2021/04/03 05:52:05;;;;;;;;;;;;;;;3.14;85.45;101514.22;5095842;28;19924;-76
2021/04/03 05:54:31;;;;;;;;;;;;;;;3.13;85.56;101508.97;5057355;28;20011;-76
2021/04/03 05:56:56;;;;;;;;;;;;;;;3.18;85.38;101511.88;5061650;28;19930;-76
2021/04/03 05:59:21;;;;;;;;;;;;;;;3.19;85.24;101513.56;5053272;28;19955;-76
2021/04/03 06:01:47;;;;;;;;;;;;;;;3.21;85.11;101527.09;5074960;28;19916;-76
2021/04/03 06:04:12;;;;;;;;;;;;;;;3.26;84.89;101519.88;5071116;28;19927;-76
2021/04/03 06:06:38;;;;;;;;;;;;;;;3.28;84.74;101514.97;5077466;28;19916;-75
2021/04/03 06:09:04;;;;;;;;;;;;;;;3.27;84.75;101524.28;5079511;28;19916;-76
2021/04/03 06:11:29;;;;;;;;;;;;;;;3.38;84.47;101521.91;5099451;28;20004;-76
2021/04/03 06:14:01;;;;;;;;;;;;;;;3.39;84.38;101521.66;5075896;28;19920;-76
2021/04/03 06:16:29;;;;;;;;;;;;;;;3.40;84.66;101530.75;5088113;28;19966;-76
2021/04/03 06:19:24;;;;;;;;;;;;;;;3.44;84.78;101526.50;5080097;28;20298;-76
2021/04/03 06:21:52;;;;;;;;;;;;;;;3.55;84.29;101528.53;5088463;28;19931;-75
2021/04/03 06:24:19;;;;;;;;;;;;;;;3.59;84.24;101540.75;5094040;28;20376;-76
2021/04/03 06:26:53;;;;;;;;;;;;;;;3.69;84.29;101548.50;5077867;28;20010;-75
2021/04/03 06:29:26;;;;;;;;;;;;;;;3.77;83.92;101540.81;5097069;28;19969;-76
2021/04/03 06:31:53;;;;;;;;;;;;;;;3.83;83.09;101547.34;5059412;28;19916;-76
2021/04/03 06:34:26;;;;;;;;;;;;;;;3.95;82.40;101556.50;5078973;28;19916;-75
2021/04/03 06:36:51;;;;;;;;;;;;;;;4.02;82.44;101540.81;5080038;28;19916;-76
2021/04/03 06:39:16;;;;;;;;;;;;;;;4.08;82.65;101539.06;5077210;28;19960;-75
2021/04/03 06:41:41;;;;;;;;;;;;;;;4.17;82.55;101550.63;5077028;28;19916;-75
2021/04/03 06:44:07;;;;;;;;;;;;;;;4.19;81.79;101556.75;5079019;28;19923;-75
2021/04/03 06:46:33;;;;;;;;;;;;;;;4.23;81.38;101564.31;5077195;28;19920;-74
2021/04/03 06:48:58;;;;;;;;;;;;;;;4.30;81.89;101560.66;5093918;28;19916;-76
2021/04/03 06:51:24;;;;;;;;;;;;;;;4.33;81.35;101568.47;5079256;28;20368;-77
2021/04/03 06:53:50;;;;;;;;;;;;;;;4.39;80.92;101562.88;5078111;28;19920;-77
2021/04/03 06:56:25;;;;;;;;;;;;;;;4.52;80.70;101577.59;5062085;28;19966;-76
2021/04/03 06:58:58;;;;;;;;;;;;;;;4.53;80.17;101563.59;5079032;28;20284;-76
2021/04/03 07:01:24;;;;;;;;;;;;;;;4.55;79.97;101572.47;5053469;28;19916;-76
2021/04/03 07:03:52;;;;;;;;;;;;;;;4.64;79.77;101565.56;5096851;28;19974;-76
2021/04/03 07:06:17;;;;;;;;;;;;;;;4.73;79.63;101579.88;5074572;28;19912;-76
2021/04/03 07:08:42;;;;;;;;;;;;;;;4.82;79.42;101580.41;5096254;28;19931;-76
2021/04/03 07:11:08;;;;;;;;;;;;;;;4.87;79.65;101578.63;5095519;28;19927;-76
2021/04/03 07:13:34;;;;;;;;;;;;;;;4.96;78.89;101583.84;5077073;28;20279;-76
2021/04/03 07:16:00;;;;;;;;;;;;;;;5.01;78.35;101586.75;5057567;28;19916;-77
2021/04/03 07:18:27;;;;;;;;;;;;;;;5.09;78.62;101581.75;5075693;28;19931;-76
2021/04/03 07:20:52;;;;;;;;;;;;;;;5.13;77.64;101585.75;5056946;28;19913;-77
2021/04/03 07:23:18;;;;;;;;;;;;;;;5.18;77.37;101581.44;5078865;28;19927;-77
2021/04/03 07:25:43;;;;;;;;;;;;;;;5.24;77.62;101580.53;5061642;28;19920;-77
2021/04/03 07:28:09;;;;;;;;;;;;;;;5.33;77.68;101585.47;5050324;28;19918;-77
2021/04/03 07:30:34;;;;;;;;;;;;;;;5.34;77.16;101587.16;5045564;28;19924;-77
2021/04/03 07:33:07;;;;;;;;;;;;;;;5.46;76.98;101589.09;5075935;28;19920;-76
2021/04/03 07:35:34;;;;;;;;;;;;;;;5.53;76.22;101579.69;5073098;28;19940;-77
2021/04/03 07:38:00;;;;;;;;;;;;;;;5.57;75.88;101586.41;5096860;28;19920;-77
2021/04/03 07:40:25;;;;;;;;;;;;;;;5.68;75.73;101589.41;5074107;28;19923;-78
2021/04/03 07:42:51;;;;;;;;;;;;;;;5.83;75.36;101584.31;5072616;28;20512;-77
2021/04/03 07:45:33;;;;;;;;;;;;;;;5.94;75.87;101586.28;5039175;28;19920;-77
2021/04/03 07:47:58;;;;;;;;;;;;;;;6.09;74.29;101583.06;5065483;28;20375;-77
2021/04/03 07:50:45;;;;;;;;;;;;;;;6.24;75.30;101585.34;5065513;28;19916;-77
2021/04/03 07:53:11;;;;;;;;;;;;;;;6.40;74.43;101587.41;5083190;28;19924;-76
2021/04/03 07:55:43;;;;;;;;;;;;;;;6.55;74.68;101588.84;5058020;28;20422;-77
2021/04/03 07:58:14;;;;;;;;;;;;;;;6.70;72.94;101592.78;5078190;28;19924;-76
2021/04/03 08:00:39;;;;;;;;;;;;;;;6.80;72.73;101583.03;5078686;28;19962;-76
2021/04/03 08:03:05;;;;;;;;;;;;;;;6.85;72.73;101597.81;5071315;28;19920;-78
2021/04/03 08:05:30;;;;;;;;;;;;;;;6.96;71.92;101603.56;5076842;28;19916;-77
2021/04/03 08:07:56;;;;;;;;;;;;;;;6.94;71.45;101596.34;5060538;28;19916;-77
2021/04/03 08:10:21;;;;;;;;;;;;;;;7.03;72.03;101605.09;5076386;28;19916;-77
2021/04/03 08:12:47;;;;;;;;;;;;;;;6.98;71.28;101607.75;5061163;28;20340;-70
2021/04/03 08:15:12;;;;;;;;;;;;;;;7.04;71.68;101598.47;5065987;28;20008;-69
2021/04/03 08:17:37;;;;;;;;;;;;;;;7.11;71.94;101601.97;5058674;28;19916;-72
2021/04/03 08:20:05;;;;;;;;;;;;;;;7.20;71.81;101607.94;5059152;28;19931;-69
2021/04/03 08:22:30;;;;;;;;;;;;;;;7.39;71.03;101605.84;5094876;28;20010;-76
2021/04/03 08:24:56;;;;;;;;;;;;;;;7.58;71.39;101610.09;5072456;28;19944;-77
2021/04/03 08:27:29;;;;;;;;;;;;;;;7.73;70.22;101606.75;5087272;28;19955;-77
2021/04/03 08:29:56;;;;;;;;;;;;;;;7.91;69.69;101602.09;5072743;28;19923;-77
2021/04/03 08:32:22;;;;;;;;;;;;;;;8.15;69.06;101606.38;5074925;28;20017;-77
2021/04/03 08:34:47;;;;;;;;;;;;;;;8.39;67.60;101612.63;5058700;28;20466;-77
2021/04/03 08:37:14;;;;;;;;;;;;;;;8.59;67.41;101612.09;5077858;28;19912;-80
2021/04/03 08:39:39;;;;;;;;;;;;;;;8.77;68.16;101607.38;5060562;28;19923;-78
2021/04/03 08:42:05;;;;;;;;;;;;;;;8.86;66.28;101627.97;5059013;28;19916;-79
2021/04/03 08:44:30;;;;;;;;;;;;;;;8.75;65.43;101615.94;5060832;28;19920;-79
2021/04/03 08:46:59;;;;;;;;;;;;;;;8.66;65.29;101626.63;5070040;28;20371;-79
2021/04/03 08:49:25;;;;;;;;;;;;;;;8.69;65.60;101622.47;5076388;28;19927;-79
2021/04/03 08:51:51;;;;;;;;;;;;;;;8.53;65.49;101609.53;5096521;28;20040;-78
2021/04/03 08:54:16;;;;;;;;;;;;;;;8.54;65.89;101609.25;5094760;28;19933;-79
2021/04/03 08:56:42;;;;;;;;;;;;;;;8.61;66.62;101604.38;5073810;28;19920;-79
2021/04/03 08:59:07;;;;;;;;;;;;;;;8.63;66.28;101602.19;5047794;28;19924;-79
2021/04/03 09:01:35;;;;;;;;;;;;;;;8.77;66.31;101604.59;5051151;28;19912;-79
2021/04/03 09:04:05;;;;;;;;;;;;;;;8.85;66.98;101604.16;5075591;28;19988;-79
2021/04/03 09:06:40;;;;;;;;;;;;;;;8.80;65.75;101604.91;5060900;28;19930;-79
2021/04/03 09:09:09;;;;;;;;;;;;;;;8.85;66.22;101598.63;5094360;28;19939;-79
2021/04/03 09:11:34;;;;;;;;;;;;;;;8.94;66.62;101608.16;5052555;28;19925;-78
2021/04/03 09:14:00;;;;;;;;;;;;;;;9.05;66.11;101607.19;5059896;28;19966;-78
2021/04/03 09:16:25;;;;;;;;;;;;;;;9.00;65.49;101600.75;5076985;28;19920;-79
2021/04/03 09:18:53;;;;;;;;;;;;;;;8.97;64.93;101602.13;5075857;28;19920;-79
2021/04/03 09:21:19;;;;;;;;;;;;;;;9.02;64.20;101612.41;5051287;28;19924;-79
2021/04/03 09:23:47;;;;;;;;;;;;;;;8.96;63.28;101614.28;5093114;28;19927;-79
2021/04/03 09:26:12;;;;;;;;;;;;;;;9.01;64.68;101608.81;5057917;28;19916;-79
2021/04/03 09:28:38;;;;;;;;;;;;;;;8.89;64.05;101610.88;5095456;28;19923;-78
2021/04/03 09:31:04;;;;;;;;;;;;;;;8.98;63.66;101616.81;5056965;28;19923;-79
2021/04/03 09:33:30;;;;;;;;;;;;;;;8.98;63.35;101609.31;5071452;28;20271;-80
2021/04/03 09:36:11;;;;;;;;;;;;;;;8.87;64.18;101624.13;5095279;28;19959;-79
2021/04/03 09:38:40;;;;;;;;;;;;;;;8.79;64.58;101616.25;5095248;28;19912;-79
2021/04/03 09:41:20;;;;;;;;;;;;;;;8.78;64.58;101622.91;5074614;28;20295;-79
2021/04/03 09:43:46;;;;;;;;;;;;;;;8.78;64.68;101625.69;5064918;28;20005;-79
2021/04/03 09:46:11;;;;;;;;;;;;;;;8.81;63.76;101619.63;5076006;28;19920;-79
2021/04/03 09:48:36;;;;;;;;;;;;;;;8.78;64.33;101625.69;5094300;28;20391;-79
2021/04/03 09:51:05;;;;;;;;;;;;;;;8.86;64.39;101619.66;5060448;28;19921;-79
2021/04/03 09:53:31;;;;;;;;;;;;;;;8.80;64.64;101615.16;5092710;28;19917;-79
2021/04/03 09:55:56;;;;;;;;;;;;;;;9.04;65.84;101618.53;5080283;28;20423;-79
2021/04/03 09:58:22;;;;;;;;;;;;;;;9.16;64.00;101620.13;5097304;28;19913;-79
2021/04/03 10:00:47;;;;;;;;;;;;;;;9.24;64.47;101620.75;5098972;28;19922;-79
2021/04/03 10:03:12;;;;;;;;;;;;;;;9.26;64.56;101615.78;5079377;28;19998;-79
2021/04/03 10:05:37;;;;;;;;;;;;;;;9.45;64.15;101631.00;5094780;28;20365;-79
2021/04/03 10:08:03;;;;;;;;;;;;;;;9.58;63.40;101615.88;5080953;28;19926;-79
2021/04/03 10:10:28;;;;;;;;;;;;;;;9.68;62.98;101609.59;5098884;28;20379;-79
2021/04/03 10:12:54;;;;;;;;;;;;;;;9.56;62.10;101607.81;5063457;28;19942;-80
2021/04/03 10:15:21;;;;;;;;;;;;;;;9.67;63.24;101619.00;5070259;28;20019;-79
2021/04/03 10:17:46;;;;;;;;;;;;;;;9.65;62.51;101621.22;5073648;28;20007;-79
2021/04/03 10:20:12;;;;;;;;;;;;;;;9.53;62.38;101626.94;5071093;28;19947;-79
2021/04/03 10:22:37;;;;;;;;;;;;;;;9.48;62.22;101624.91;5080900;28;19923;-79
2021/04/03 10:25:02;;;;;;;;;;;;;;;9.28;62.38;101624.69;5079300;28;19924;-79
2021/04/03 10:27:28;;;;;;;;;;;;;;;9.11;62.58;101620.03;5061849;28;19918;-79
2021/04/03 10:29:53;;;;;;;;;;;;;;;9.11;63.69;101628.34;5080475;28;19916;-79
2021/04/03 10:32:18;;;;;;;;;;;;;;;9.16;64.68;101622.88;5098331;28;19923;-79
2021/04/03 10:34:44;;;;;;;;;;;;;;;9.09;64.53;101618.63;5077069;28;19912;-79
2021/04/03 10:37:09;;;;;;;;;;;;;;;9.15;64.60;101636.97;5098462;28;20429;-79
2021/04/03 10:39:34;;;;;;;;;;;;;;;9.33;64.82;101619.19;5043677;28;19919;-79
2021/04/03 10:42:00;;;;;;;;;;;;;;;9.32;64.69;101626.66;5078242;28;19919;-79
2021/04/03 10:44:25;;;;;;;;;;;;;;;9.37;63.95;101625.91;5063085;28;19920;-79
2021/04/03 10:46:51;;;;;;;;;;;;;;;9.53;63.20;101626.94;5095815;28;19927;-79
2021/04/03 10:49:16;;;;;;;;;;;;;;;9.37;63.97;101626.72;5096569;28;19923;-79
2021/04/03 10:51:41;;;;;;;;;;;;;;;9.43;62.86;101626.78;5098424;28;19912;-78
2021/04/03 10:54:07;;;;;;;;;;;;;;;9.61;62.96;101618.97;5075386;28;19916;-79
2021/04/03 10:56:32;;;;;;;;;;;;;;;9.60;62.28;101620.06;5088525;28;19916;-79
2021/04/03 10:58:58;;;;;;;;;;;;;;;9.62;62.87;101623.41;5097787;28;19924;-79
2021/04/03 11:01:24;;;;;;;;;;;;;;;9.62;62.19;101614.25;5097427;28;19969;-79
2021/04/03 11:03:49;;;;;;;;;;;;;;;9.64;62.59;101617.63;5095480;28;20016;-79
2021/04/03 11:06:14;;;;;;;;;;;;;;;9.70;63.05;101619.34;5078667;28;19971;-79
2021/04/03 11:08:39;;;;;;;;;;;;;;;9.76;62.79;101620.22;5073783;28;20265;-79
2021/04/03 11:11:06;;;;;;;;;;;;;;;9.78;63.50;101601.41;5047569;28;19961;-79
2021/04/03 11:13:31;;;;;;;;;;;;;;;9.84;63.39;101612.28;5079362;28;19977;-79
2021/04/03 11:15:56;;;;;;;;;;;;;;;9.94;63.39;101588.47;5062588;28;19917;-79
2021/04/03 11:18:22;;;;;;;;;;;;;;;9.94;62.99;101589.31;5070335;28;19970;-79
2021/04/03 11:20:47;;;;;;;;;;;;;;;10.03;63.31;101598.84;5066760;28;19923;-79
2021/04/03 11:23:12;;;;;;;;;;;;;;;9.92;62.84;101602.63;5067566;28;20007;-79
2021/04/03 11:25:38;;;;;;;;;;;;;;;9.90;62.79;101602.06;5058082;28;20322;-79
2021/04/03 11:28:03;;;;;;;;;;;;;;;9.86;62.94;101603.66;5091387;28;19973;-79
2021/04/03 11:30:28;;;;;;;;;;;;;;;9.86;63.26;101595.34;5085306;28;19919;-79
2021/04/03 11:32:54;;;;;;;;;;;;;;;9.65;63.31;101601.81;5063150;28;19916;-79
2021/04/03 11:35:20;;;;;;;;;;;;;;;9.75;63.18;101596.34;5075789;28;20268;-79
2021/04/03 11:37:45;;;;;;;;;;;;;;;9.77;63.08;101600.53;5079334;28;19959;-79
2021/04/03 11:40:11;;;;;;;;;;;;;;;9.75;62.51;101591.66;5091367;28;19938;-79
2021/04/03 11:42:37;;;;;;;;;;;;;;;9.83;64.35;101585.63;5087085;28;19927;-79
2021/04/03 11:45:03;;;;;;;;;;;;;;;9.85;64.25;101577.03;5062495;28;20616;-79
2021/04/03 11:47:28;;;;;;;;;;;;;;;9.90;64.18;101590.97;5087544;28;19917;-79
2021/04/03 11:49:55;;;;;;;;;;;;;;;9.88;64.20;101593.16;5070250;28;20019;-79
2021/04/03 11:52:20;;;;;;;;;;;;;;;9.83;62.61;101580.09;5080049;28;19916;-79
2021/04/03 11:54:46;;;;;;;;;;;;;;;9.83;63.72;101587.56;5067596;28;19961;-79
2021/04/03 11:57:11;;;;;;;;;;;;;;;9.93;63.46;101595.97;5092845;28;19923;-79
2021/04/03 11:59:36;;;;;;;;;;;;;;;9.92;62.49;101586.00;5067098;28;19916;-79
2021/04/03 12:02:02;;;;;;;;;;;;;;;9.90;62.91;101588.19;5061293;28;20372;-79
2021/04/03 12:04:27;;;;;;;;;;;;;;;9.92;62.53;101586.00;5071543;28;19921;-79
2021/04/03 12:06:52;;;;;;;;;;;;;;;9.89;63.72;101578.19;5092504;28;19916;-79
2021/04/03 12:09:18;;;;;;;;;;;;;;;9.97;63.41;101572.16;5059577;28;19942;-79
2021/04/03 12:11:43;;;;;;;;;;;;;;;10.00;63.44;101563.31;5083711;28;19931;-79
2021/04/03 12:14:08;;;;;;;;;;;;;;;10.12;63.42;101571.44;5069185;28;19962;-79
2021/04/03 12:16:34;;;;;;;;;;;;;;;10.03;62.47;101581.38;5090447;28;19935;-78
2021/04/03 12:18:59;;;;;;;;;;;;;;;10.07;63.57;101569.47;5060275;28;19991;-78
2021/04/03 12:21:24;;;;;;;;;;;;;;;10.05;63.41;101568.03;5090013;28;19920;-79
2021/04/03 12:23:50;;;;;;;;;;;;;;;10.13;61.95;101573.09;5069743;28;19920;-79
2021/04/03 12:26:15;;;;;;;;;;;;;;;10.30;62.94;101570.22;5068369;28;19913;-79
2021/04/03 12:28:40;;;;;;;;;;;;;;;10.41;62.58;101568.34;5071637;28;20276;-79
2021/04/03 12:31:06;;;;;;;;;;;;;;;10.41;61.73;101569.19;5082654;28;19916;-79
2021/04/03 12:33:31;;;;;;;;;;;;;;;10.51;62.56;101572.03;5083298;28;19913;-79
2021/04/03 12:35:56;;;;;;;;;;;;;;;10.41;61.55;101558.06;5072641;28;19924;-79
2021/04/03 12:38:22;;;;;;;;;;;;;;;10.54;61.67;101567.06;5067628;28;19950;-79
2021/04/03 12:40:47;;;;;;;;;;;;;;;10.61;62.71;101570.41;5059870;28;19917;-79